Terminal Aerodrome Forecast
Issued by NWS Boise, ID

Home | Current Version | Previous Version | Text Only | Print | Product List | Glossary On
Versions: 1 2 3 4 5 6 7 8 9 10 11 12 13 14 15
000
FTUS45 KBOI 201123
TAFBNO
TAF
KBNO 201123Z 2012/2112 VRB05KT P6SM SCT040 SCT200
     FM202200 21005KT P6SM SCT040 OVC120
     FM210500 VRB03KT P6SM VCSH SCT040 OVC080
     FM210800 VRB03KT 5SM -SN OVC040 PROB30 2108/2112 2SM -SN BR
      OVC020=

USA.gov is the U.S. government's official web portal to all federal, state and local government web resources and services.